Time;durP1;ratioP1;P1;durP2;ratioP2;P2;SDS_P1;SDS_P2;PMS_P1;PMS_P2;Temp;Humidity;BMP_temperature;BMP_pressure;BME280_temperature;BME280_humidity;BME280_pressure;Samples;Min_cycle;Max_cycle;Signal;HPM_P1;HPM_P2
2023/10/14 00:00:41;;;;;;;5.33;4.70;;;;;;;17.35;65.41;99509.53;5023992;27;98127;-80
2023/10/14 00:03:20;;;;;;;6.03;4.70;;;;;;;17.36;65.37;99505.41;5024781;27;100853;-79
2023/10/14 00:05:45;;;;;;;9.90;4.53;;;;;;;17.35;65.39;99509.53;5020190;27;97382;-79
2023/10/14 00:08:12;;;;;;;7.60;4.43;;;;;;;17.34;65.42;99510.09;5023318;27;102122;-80
2023/10/14 00:10:39;;;;;;;6.80;4.97;;;;;;;17.35;65.39;99495.56;5026043;27;96959;-78
2023/10/14 00:13:05;;;;;;;6.17;5.47;;;;;;;17.34;65.44;99498.91;5019864;27;99101;-78
2023/10/14 00:15:31;;;;;;;6.57;4.40;;;;;;;17.34;65.45;99491.28;5025745;27;97229;-79
2023/10/14 00:17:59;;;;;;;7.87;4.93;;;;;;;17.35;65.53;99497.59;5025052;27;97127;-80
2023/10/14 00:20:24;;;;;;;6.30;4.90;;;;;;;17.35;65.35;99478.78;5022288;27;97389;-79
2023/10/14 00:22:49;;;;;;;8.20;4.57;;;;;;;17.40;65.44;99458.16;5026079;27;97831;-79
2023/10/14 00:25:23;;;;;;;8.23;4.80;;;;;;;17.45;65.41;99503.19;5024641;27;96766;-78
2023/10/14 00:27:50;;;;;;;7.23;5.77;;;;;;;17.45;65.35;99450.78;5020450;27;96788;-79
2023/10/14 00:30:19;;;;;;;7.17;4.80;;;;;;;17.50;65.31;99449.00;5024640;27;100950;-79
2023/10/14 00:32:44;;;;;;;12.00;5.67;;;;;;;17.53;65.23;99453.41;5026717;27;100327;-78
2023/10/14 00:35:11;;;;;;;10.30;5.23;;;;;;;17.51;65.33;99500.81;5026812;27;97562;-78
2023/10/14 00:37:37;;;;;;;8.13;4.93;;;;;;;17.54;65.38;99460.47;5027648;27;98206;-78
2023/10/14 00:40:11;;;;;;;7.17;5.03;;;;;;;17.55;65.33;99461.97;5024560;27;98026;-78
2023/10/14 00:42:37;;;;;;;11.93;5.37;;;;;;;17.59;65.28;99459.44;5024436;27;96620;-79
2023/10/14 00:45:09;;;;;;;7.40;5.20;;;;;;;17.60;65.17;99498.00;5025438;27;97182;-78
2023/10/14 00:47:39;;;;;;;6.37;4.80;;;;;;;17.62;65.12;99537.28;5026218;27;99530;-77
2023/10/14 00:50:22;;;;;;;7.97;4.23;;;;;;;17.53;65.08;99584.84;5023949;27;99005;-79
2023/10/14 00:52:53;;;;;;;4.20;2.33;;;;;;;17.29;64.83;99527.94;5028108;27;97419;-79
2023/10/14 00:55:24;;;;;;;4.87;2.10;;;;;;;17.03;64.92;99537.22;5025076;27;97130;-78
2023/10/14 00:57:58;;;;;;;4.53;1.83;;;;;;;16.84;65.05;99515.59;5027747;27;96782;-81
2023/10/14 01:00:34;;;;;;;3.93;1.70;;;;;;;16.68;65.46;99533.94;5027153;27;97522;-80
2023/10/14 01:03:03;;;;;;;3.23;1.40;;;;;;;16.55;65.54;99504.38;5028557;27;98041;-81
2023/10/14 01:05:29;;;;;;;1.83;1.10;;;;;;;16.54;65.57;99499.38;5028297;27;96749;-78
2023/10/14 01:07:58;;;;;;;1.50;1.33;;;;;;;16.48;65.69;99510.09;5025948;27;97518;-79
2023/10/14 01:10:25;;;;;;;2.50;1.30;;;;;;;16.43;65.62;99481.16;5021480;27;99463;-79
2023/10/14 01:12:56;;;;;;;3.73;1.10;;;;;;;16.47;65.71;99497.44;5022733;27;100092;-79
2023/10/14 01:15:23;;;;;;;1.43;1.00;;;;;;;16.45;65.75;99537.13;5026463;27;97038;-79
2023/10/14 01:17:52;;;;;;;2.57;1.30;;;;;;;16.38;65.73;99548.41;5027514;27;97352;-77
2023/10/14 01:22:44;;;;;;;3.57;1.20;;;;;;;16.31;65.72;99540.91;5026264;27;97074;-81
2023/10/14 01:25:14;;;;;;;4.17;1.00;;;;;;;16.29;65.84;99560.31;5036674;27;97451;-78
2023/10/14 01:27:43;;;;;;;3.53;1.33;;;;;;;16.25;65.89;99543.22;5024515;27;97247;-77
2023/10/14 01:30:20;;;;;;;2.83;1.07;;;;;;;16.17;65.77;99551.75;5025928;27;97199;-79
2023/10/14 01:37:53;;;;;;;1.17;0.67;;;;;;;15.75;64.98;99570.75;5024681;27;97242;-78
2023/10/14 01:42:48;;;;;;;1.80;0.70;;;;;;;15.55;65.29;99608.19;5026640;27;97259;-79
2023/10/14 01:45:20;;;;;;;1.47;0.67;;;;;;;15.50;64.80;99584.81;5021433;27;96991;-78
2023/10/14 01:47:49;;;;;;;0.70;0.60;;;;;;;15.42;64.82;99614.84;5022888;27;100458;-78
2023/10/14 01:50:14;;;;;;;7.87;1.03;;;;;;;15.37;64.95;99618.59;5020855;27;99395;-79
2023/10/14 01:52:41;;;;;;;2.40;0.87;;;;;;;15.33;65.04;99690.75;5026498;27;97384;-79
2023/10/14 01:55:08;;;;;;;2.43;0.60;;;;;;;15.33;64.87;99646.16;5024591;27;97526;-78
2023/10/14 01:57:36;;;;;;;2.10;0.77;;;;;;;15.33;64.67;99639.88;5025763;27;97530;-79
2023/10/14 02:00:12;;;;;;;1.80;0.83;;;;;;;15.24;64.97;99699.75;5025242;27;97840;-78
2023/10/14 02:02:48;;;;;;;1.57;1.00;;;;;;;15.21;64.78;99639.59;5025893;27;98197;-78
2023/10/14 02:05:14;;;;;;;1.90;0.50;;;;;;;15.13;64.71;99684.25;5025526;27;97462;-79
2023/10/14 02:07:40;;;;;;;1.53;0.73;;;;;;;15.10;64.70;99662.38;5027699;27;97012;-79
2023/10/14 02:10:06;;;;;;;2.50;0.83;;;;;;;15.08;64.65;99678.94;5020667;27;100509;-78
2023/10/14 02:12:34;;;;;;;3.37;0.93;;;;;;;15.06;64.60;99687.13;5026088;27;99412;-79
2023/10/14 02:15:00;;;;;;;1.10;0.50;;;;;;;14.96;64.52;99705.75;5025194;27;96732;-78
2023/10/14 02:17:25;;;;;;;2.50;1.00;;;;;;;14.93;64.45;99682.56;5023422;27;97920;-79
2023/10/14 02:19:54;;;;;;;1.10;0.60;;;;;;;14.82;64.47;99683.03;5023771;27;96897;-79
2023/10/14 02:22:23;;;;;;;1.00;0.47;;;;;;;14.79;64.59;99697.34;5026779;27;96678;-78
2023/10/14 02:24:49;;;;;;;3.13;0.70;;;;;;;14.77;64.53;99720.19;5023449;27;96963;-78
2023/10/14 02:27:15;;;;;;;2.20;0.60;;;;;;;14.75;64.70;99697.00;5026968;27;97297;-78
2023/10/14 02:29:47;;;;;;;3.13;1.00;;;;;;;14.71;64.56;99683.50;5022269;27;99169;-78
2023/10/14 02:32:13;;;;;;;3.93;0.80;;;;;;;14.64;64.70;99670.38;5025469;27;98211;-78
2023/10/14 02:34:45;;;;;;;2.30;0.60;;;;;;;14.63;64.60;99673.72;5024725;27;97671;-78
2023/10/14 02:37:13;;;;;;;2.63;0.60;;;;;;;14.60;64.59;99688.75;5024852;27;98121;-78
2023/10/14 02:39:40;;;;;;;2.60;0.50;;;;;;;14.60;64.89;99691.56;5026400;27;97120;-78
2023/10/14 02:44:52;;;;;;;2.80;0.70;;;;;;;14.53;64.76;99709.78;5023289;27;97335;-78
2023/10/14 02:47:19;;;;;;;2.63;0.90;;;;;;;14.52;64.70;99711.06;5024070;27;96671;-78
2023/10/14 02:49:53;;;;;;;1.80;0.63;;;;;;;14.53;64.90;99728.53;5026266;27;97123;-78
2023/10/14 02:52:28;;;;;;;2.33;0.60;;;;;;;14.48;64.65;99708.69;5026230;27;97414;-78
2023/10/14 02:54:55;;;;;;;2.10;1.10;;;;;;;14.43;64.70;99715.22;5024068;27;96792;-78
2023/10/14 02:57:26;;;;;;;0.90;0.60;;;;;;;14.42;64.60;99730.44;5021800;27;98033;-78
2023/10/14 02:59:55;;;;;;;1.97;0.60;;;;;;;14.41;64.86;99723.38;5020272;27;99516;-78
2023/10/14 03:07:28;;;;;;;2.60;0.70;;;;;;;14.42;64.91;99769.41;5024002;27;97177;-79
2023/10/14 03:09:58;;;;;;;1.57;0.57;;;;;;;14.40;64.70;99799.84;5025301;27;97164;-79
2023/10/14 03:12:24;;;;;;;2.83;0.73;;;;;;;14.37;64.86;99783.50;5024776;27;98932;-78
2023/10/14 03:14:52;;;;;;;0.60;0.60;;;;;;;14.39;65.08;99794.81;5022833;27;98292;-78
2023/10/14 03:17:25;;;;;;;0.77;0.70;;;;;;;14.35;64.82;99803.56;5022532;27;96783;-78
2023/10/14 03:19:53;;;;;;;1.23;0.50;;;;;;;14.33;64.74;99806.19;5022476;27;98077;-78
2023/10/14 03:22:22;;;;;;;0.60;0.50;;;;;;;14.29;64.61;99839.22;5020918;27;99163;-78
2023/10/14 03:24:51;;;;;;;1.33;0.60;;;;;;;14.23;64.74;99799.75;5037158;27;97662;-78
2023/10/14 03:27:18;;;;;;;1.30;0.60;;;;;;;14.23;64.78;99824.03;5022092;27;98929;-78
2023/10/14 03:29:51;;;;;;;1.70;0.60;;;;;;;14.21;64.79;99832.91;5022641;27;97940;-78
2023/10/14 03:32:17;;;;;;;1.73;0.50;;;;;;;14.17;64.74;99840.19;5022648;27;97266;-79
2023/10/14 03:34:43;;;;;;;0.70;0.60;;;;;;;14.07;64.60;99830.94;5021623;27;97057;-78
2023/10/14 03:37:25;;;;;;;0.60;0.50;;;;;;;14.06;64.78;99851.72;5022821;27;97588;-78
2023/10/14 03:40:51;;;;;;;1.17;0.50;;;;;;;14.04;65.06;99876.56;5021739;27;97406;-78
2023/10/14 03:42:51;;;;;;;1.70;0.73;;;;;;;14.02;64.77;99882.66;5010615;27;98033;-78
2023/10/14 03:45:21;;;;;;;2.10;0.40;;;;;;;14.02;64.82;99901.38;5026409;27;96873;-78
2023/10/14 03:47:52;;;;;;;1.40;0.47;;;;;;;13.98;64.80;99910.09;5036504;27;97435;-79
2023/10/14 03:50:23;;;;;;;0.70;0.50;;;;;;;13.92;64.91;99909.56;5013230;27;100557;-79
2023/10/14 03:52:51;;;;;;;1.50;0.60;;;;;;;13.91;64.92;99910.13;5019375;27;100625;-78
2023/10/14 03:55:19;;;;;;;1.17;0.70;;;;;;;13.90;64.87;99923.28;5020379;27;97152;-79
2023/10/14 03:57:45;;;;;;;3.23;0.50;;;;;;;13.88;64.91;99902.88;5018358;27;96903;-78
2023/10/14 04:06:02;;;;;;;1.23;0.43;;;;;;;13.77;65.08;99923.47;5023951;27;97594;-78
2023/10/14 04:08:39;;;;;;;1.00;0.60;;;;;;;13.80;64.98;99936.22;5021825;27;97215;-79
2023/10/14 04:11:14;;;;;;;2.60;0.67;;;;;;;13.75;64.78;99926.78;5024260;27;97938;-78
2023/10/14 04:13:52;;;;;;;0.80;0.53;;;;;;;13.74;64.84;99952.38;5022711;27;97837;-78
2023/10/14 04:16:28;;;;;;;2.63;0.60;;;;;;;13.69;65.13;99947.72;5023145;27;97058;-76
2023/10/14 04:19:04;;;;;;;2.00;0.60;;;;;;;13.65;65.06;99950.88;5022016;27;98052;-78
2023/10/14 04:21:36;;;;;;;0.90;0.60;;;;;;;13.65;65.11;99944.56;5016047;27;100457;-78
2023/10/14 04:24:12;;;;;;;2.80;0.60;;;;;;;13.66;65.08;99966.28;5023111;27;98059;-78
2023/10/14 04:26:41;;;;;;;1.30;0.70;;;;;;;13.65;65.06;99978.69;5023623;27;97347;-78
2023/10/14 04:29:12;;;;;;;0.70;0.60;;;;;;;13.66;65.00;99969.06;5021232;27;97199;-79
2023/10/14 04:31:39;;;;;;;1.57;0.80;;;;;;;13.65;65.02;99992.56;5021220;28;99375;-78
2023/10/14 04:34:06;;;;;;;1.53;0.50;;;;;;;13.65;64.92;99980.72;5039332;27;100571;-79
2023/10/14 04:36:37;;;;;;;2.03;0.80;;;;;;;13.61;64.95;100008.13;5020892;27;97162;-78
2023/10/14 04:39:15;;;;;;;3.53;1.00;;;;;;;13.57;64.70;100002.19;5023010;27;97258;-78
2023/10/14 04:44:37;;;;;;;1.83;0.83;;;;;;;13.48;64.92;100020.16;5022745;28;97169;-78
2023/10/14 04:47:04;;;;;;;1.80;0.70;;;;;;;13.44;64.73;100025.34;5022455;28;98145;-78
2023/10/14 04:49:36;;;;;;;2.43;1.00;;;;;;;13.38;64.87;100018.47;5021898;27;97242;-78
2023/10/14 04:52:05;;;;;;;0.97;0.67;;;;;;;13.36;64.77;100019.00;5023193;27;97960;-78
2023/10/14 04:54:34;;;;;;;5.13;0.80;;;;;;;13.32;64.71;100031.78;5038791;27;100221;-78
2023/10/14 04:57:19;;;;;;;4.00;1.10;;;;;;;13.27;64.63;100043.78;5020893;27;97299;-78
2023/10/14 04:59:45;;;;;;;2.50;0.93;;;;;;;13.25;64.74;100063.03;5022949;27;97520;-78
2023/10/14 05:02:15;;;;;;;2.00;0.60;;;;;;;13.22;64.62;100058.56;5023574;28;98153;-78
2023/10/14 05:04:41;;;;;;;1.70;1.20;;;;;;;13.16;64.54;100055.97;5021321;28;97804;-78
2023/10/14 05:07:11;;;;;;;4.63;1.13;;;;;;;13.11;64.61;100078.34;5022760;27;96848;-79
2023/10/14 05:09:39;;;;;;;3.80;0.83;;;;;;;13.04;64.53;100062.38;5018031;27;97187;-77
2023/10/14 05:12:08;;;;;;;3.23;0.90;;;;;;;12.99;64.58;100081.41;5022295;27;97321;-79
2023/10/14 05:14:36;;;;;;;3.33;0.87;;;;;;;12.97;64.57;100083.97;5020946;27;98505;-78
2023/10/14 05:17:25;;;;;;;2.80;0.67;;;;;;;12.93;64.63;100094.69;5023910;27;97192;-78
2023/10/14 05:19:54;;;;;;;5.20;0.97;;;;;;;12.87;64.47;100107.25;5022178;27;97238;-78
2023/10/14 05:22:23;;;;;;;2.50;1.00;;;;;;;12.84;64.52;100100.00;5022458;27;98586;-78
2023/10/14 05:24:52;;;;;;;3.70;0.97;;;;;;;12.86;64.58;100106.50;5018289;28;98123;-78
2023/10/14 05:27:21;;;;;;;7.20;1.30;;;;;;;12.84;64.53;100109.06;5022949;28;97034;-79
2023/10/14 05:29:50;;;;;;;1.40;1.00;;;;;;;12.78;64.31;100111.25;5021822;28;97325;-78
2023/10/14 05:32:18;;;;;;;3.30;0.80;;;;;;;12.76;64.38;100126.97;5021476;27;97213;-78
2023/10/14 05:34:45;;;;;;;2.13;0.90;;;;;;;12.75;64.47;100122.72;5019246;27;99010;-78
2023/10/14 05:37:11;;;;;;;6.93;1.00;;;;;;;12.71;64.27;100133.41;5023566;28;97200;-79
2023/10/14 05:39:38;;;;;;;2.63;1.20;;;;;;;12.68;64.26;100128.94;5023038;28;97315;-78
2023/10/14 05:42:16;;;;;;;4.57;1.30;;;;;;;12.64;64.32;100134.81;5022413;27;98229;-79
2023/10/14 05:44:49;;;;;;;8.43;2.30;;;;;;;12.57;64.23;100141.06;5020290;28;99822;-78
2023/10/14 05:47:19;;;;;;;5.27;1.33;;;;;;;12.51;64.24;100146.00;5021901;28;97787;-78
2023/10/14 05:49:45;;;;;;;3.47;1.10;;;;;;;12.46;64.33;100155.22;5021811;27;97340;-78
2023/10/14 05:52:13;;;;;;;2.70;0.80;;;;;;;12.44;64.39;100160.56;5023087;27;97664;-78
2023/10/14 05:54:41;;;;;;;1.63;0.80;;;;;;;12.41;64.22;100183.84;5020057;28;97742;-78
2023/10/14 05:57:10;;;;;;;3.67;1.17;;;;;;;12.42;64.36;100173.50;5022239;28;97459;-78
2023/10/14 05:59:36;;;;;;;5.97;1.30;;;;;;;12.38;64.19;100190.47;5019869;27;97402;-78
2023/10/14 06:02:06;;;;;;;3.03;1.07;;;;;;;12.38;64.15;100171.03;5021592;28;97885;-78
2023/10/14 06:04:32;;;;;;;2.00;1.03;;;;;;;12.34;64.07;100195.59;5021114;27;97234;-78
2023/10/14 06:07:00;;;;;;;3.27;1.23;;;;;;;12.30;64.08;100195.19;5020839;27;97093;-78
2023/10/14 06:09:26;;;;;;;2.40;1.00;;;;;;;12.29;63.98;100190.94;5021991;28;97426;-77
2023/10/14 06:11:53;;;;;;;5.30;1.10;;;;;;;12.23;63.93;100206.94;5019778;28;97899;-77
2023/10/14 06:14:18;;;;;;;5.67;1.17;;;;;;;12.24;64.06;100214.00;5021635;27;96995;-77
2023/10/14 06:16:43;;;;;;;3.17;1.10;;;;;;;12.23;64.00;100204.19;5020540;28;97652;-78
2023/10/14 06:19:12;;;;;;;4.87;1.50;;;;;;;12.20;63.92;100219.84;5021787;27;97083;-78
2023/10/14 06:21:38;;;;;;;6.73;1.80;;;;;;;12.18;63.85;100222.44;5020724;27;97675;-78
2023/10/14 06:24:04;;;;;;;9.37;1.70;;;;;;;12.17;63.87;100245.91;5021015;27;110751;-78
2023/10/14 06:26:30;;;;;;;4.60;1.50;;;;;;;12.16;63.86;100240.91;5022975;27;99901;-78
2023/10/14 06:28:58;;;;;;;3.93;1.57;;;;;;;12.11;63.80;100259.16;5019377;27;98684;-78
2023/10/14 06:31:24;;;;;;;7.90;1.40;;;;;;;12.07;63.79;100289.22;5020275;28;96997;-78
2023/10/14 06:33:49;;;;;;;6.30;1.63;;;;;;;12.08;63.79;100251.16;5017724;27;100002;-78
2023/10/14 06:36:14;;;;;;;3.37;1.20;;;;;;;12.05;63.76;100261.28;5021860;28;100022;-77
2023/10/14 06:38:44;;;;;;;5.00;1.40;;;;;;;12.02;63.75;100269.94;5020544;28;97477;-78
2023/10/14 06:41:11;;;;;;;4.80;1.17;;;;;;;11.98;63.67;100283.38;5016807;27;99566;-77
2023/10/14 06:43:37;;;;;;;5.73;1.20;;;;;;;12.00;63.73;100295.44;5019446;27;97673;-77
2023/10/14 06:46:06;;;;;;;2.70;0.90;;;;;;;11.99;63.84;100304.25;5018401;27;97348;-76
2023/10/14 06:48:33;;;;;;;2.90;0.90;;;;;;;12.01;63.81;100301.69;5019994;28;97529;-77
2023/10/14 06:50:59;;;;;;;4.70;1.50;;;;;;;12.03;63.83;100335.22;5021052;27;97858;-77
2023/10/14 06:53:28;;;;;;;2.73;1.07;;;;;;;12.06;63.85;100320.25;5021724;27;97040;-77
2023/10/14 06:55:54;;;;;;;6.57;1.33;;;;;;;12.06;63.88;100326.56;5018768;28;97034;-77
2023/10/14 06:58:21;;;;;;;5.60;1.83;;;;;;;12.06;63.68;100337.66;5010396;28;97134;-77
2023/10/14 07:00:48;;;;;;;5.43;1.47;;;;;;;12.06;63.84;100359.06;5019165;27;97824;-77
2023/10/14 07:03:14;;;;;;;1.40;0.90;;;;;;;12.09;63.66;100355.25;5017483;28;97261;-77
2023/10/14 07:05:43;;;;;;;4.50;1.23;;;;;;;12.07;63.57;100353.00;5017708;28;97229;-76
2023/10/14 07:08:13;;;;;;;3.73;1.30;;;;;;;12.11;63.63;100372.09;5021206;28;97077;-77
2023/10/14 07:10:39;;;;;;;2.50;1.00;;;;;;;12.08;63.60;100365.59;5016308;28;98070;-78
2023/10/14 07:13:05;;;;;;;4.10;1.13;;;;;;;12.06;63.55;100376.47;5018172;27;100302;-77
2023/10/14 07:15:35;;;;;;;4.63;1.97;;;;;;;12.08;63.70;100378.69;5021620;27;97994;-77
2023/10/14 07:18:01;;;;;;;7.23;1.70;;;;;;;12.08;63.59;100376.69;5019072;28;100284;-77
2023/10/14 07:20:29;;;;;;;5.27;1.20;;;;;;;12.05;63.52;100386.06;5020946;27;97328;-76
2023/10/14 07:22:56;;;;;;;4.70;1.20;;;;;;;12.07;63.54;100394.59;5016718;28;97653;-76
2023/10/14 07:25:23;;;;;;;2.77;0.80;;;;;;;12.09;63.55;100386.50;5020530;28;97568;-76
2023/10/14 07:27:51;;;;;;;5.67;1.30;;;;;;;12.13;63.51;100394.50;5018694;28;97331;-76
2023/10/14 07:30:18;;;;;;;8.37;1.60;;;;;;;12.15;63.46;100403.03;5019025;27;101556;-76
2023/10/14 07:32:44;;;;;;;3.03;1.33;;;;;;;12.16;63.36;100408.03;5018537;28;98188;-76
2023/10/14 07:35:11;;;;;;;4.83;1.70;;;;;;;12.18;63.44;100413.78;5019266;28;97303;-76
2023/10/14 07:37:39;;;;;;;5.17;1.20;;;;;;;12.18;63.42;100424.88;5018369;28;100170;-77
2023/10/14 07:40:11;;;;;;;3.10;1.07;;;;;;;12.24;63.27;100427.56;5018292;27;98429;-76
2023/10/14 07:42:39;;;;;;;3.77;1.07;;;;;;;12.25;63.44;100442.91;5019161;28;97953;-76
2023/10/14 07:45:10;;;;;;;3.10;1.00;;;;;;;12.31;63.34;100442.81;5017886;28;97071;-76
2023/10/14 07:47:36;;;;;;;2.60;0.97;;;;;;;12.31;63.22;100446.34;5020601;28;98222;-75
2023/10/14 07:50:09;;;;;;;4.50;1.00;;;;;;;12.31;63.07;100451.91;5019241;27;97790;-76
2023/10/14 07:52:35;;;;;;;3.10;1.33;;;;;;;12.32;63.19;100452.63;5020146;28;99350;-77
2023/10/14 07:55:02;;;;;;;5.80;1.43;;;;;;;12.34;63.09;100464.69;5020707;28;97481;-77
2023/10/14 07:57:27;;;;;;;4.40;1.40;;;;;;;12.36;63.13;100462.13;5020600;28;97223;-75
2023/10/14 07:59:57;;;;;;;2.40;1.10;;;;;;;12.37;63.11;100477.50;5018480;27;97471;-75
2023/10/14 08:02:26;;;;;;;7.10;1.33;;;;;;;12.40;63.01;100475.69;5017011;27;97888;-75
2023/10/14 08:04:53;;;;;;;3.07;1.10;;;;;;;12.42;62.89;100487.75;5016668;28;97190;-76
2023/10/14 08:07:19;;;;;;;2.97;1.53;;;;;;;12.48;62.88;100473.75;5016161;28;97958;-76
2023/10/14 08:09:45;;;;;;;5.80;1.23;;;;;;;12.49;62.91;100480.81;5019646;27;97120;-75
2023/10/14 08:12:10;;;;;;;4.43;1.17;;;;;;;12.51;63.04;100483.81;5019677;28;97466;-76
2023/10/14 08:14:35;;;;;;;5.63;1.70;;;;;;;12.53;62.99;100492.34;5019341;28;96882;-77
2023/10/14 08:17:01;;;;;;;6.93;1.43;;;;;;;12.55;62.78;100492.53;5019445;28;97659;-78
2023/10/14 08:19:26;;;;;;;11.43;1.70;;;;;;;12.59;62.67;100488.16;5019498;27;98003;-74
2023/10/14 08:21:52;;;;;;;4.37;1.17;;;;;;;12.63;62.72;100485.81;5016256;27;100626;-76
2023/10/14 08:24:20;;;;;;;5.33;1.27;;;;;;;12.63;62.54;100496.91;5019449;27;97141;-77
2023/10/14 08:26:46;;;;;;;3.50;1.37;;;;;;;12.62;62.50;100495.41;5017405;27;97440;-77
2023/10/14 08:29:12;;;;;;;3.97;1.50;;;;;;;12.68;62.29;100506.41;5019095;28;98170;-74
2023/10/14 08:31:38;;;;;;;4.67;1.50;;;;;;;12.68;62.31;100509.19;5018552;27;97600;-76
2023/10/14 08:34:07;;;;;;;12.23;1.70;;;;;;;12.71;62.30;100517.19;5018907;28;96755;-76
2023/10/14 08:36:32;;;;;;;3.40;1.20;;;;;;;12.71;62.28;100522.75;5020782;27;96837;-77
2023/10/14 08:38:58;;;;;;;4.77;1.20;;;;;;;12.72;62.12;100529.81;5018525;27;96869;-76
2023/10/14 08:41:26;;;;;;;9.43;1.50;;;;;;;12.77;61.95;100522.66;5020475;27;100275;-76
2023/10/14 08:43:56;;;;;;;5.27;1.30;;;;;;;12.77;62.08;100528.94;5018938;28;97579;-75
2023/10/14 08:46:29;;;;;;;1.70;1.03;;;;;;;12.72;62.45;100529.03;5020106;28;97435;-76
2023/10/14 08:48:55;;;;;;;3.50;1.07;;;;;;;12.78;62.41;100526.91;5017598;27;97611;-76
2023/10/14 08:51:24;;;;;;;6.27;1.13;;;;;;;12.81;62.23;100537.72;5023066;28;97775;-76
2023/10/14 08:53:53;;;;;;;6.30;1.27;;;;;;;12.83;62.05;100529.59;5026545;27;97504;-76
2023/10/14 08:56:18;;;;;;;3.60;1.27;;;;;;;12.86;62.03;100534.06;5023035;28;97000;-76
2023/10/14 08:58:45;;;;;;;11.73;1.63;;;;;;;12.93;62.01;100541.75;5022360;27;98067;-75
2023/10/14 09:01:15;;;;;;;4.80;1.27;;;;;;;12.96;62.03;100549.00;5022044;28;97667;-76
2023/10/14 09:03:45;;;;;;;5.77;1.10;;;;;;;12.94;61.61;100546.03;5023209;28;97306;-76
2023/10/14 09:06:11;;;;;;;2.93;1.23;;;;;;;12.93;61.51;100552.84;5017316;28;97301;-76
2023/10/14 09:08:37;;;;;;;6.23;1.30;;;;;;;12.96;61.37;100559.38;5017143;28;98833;-75
2023/10/14 09:11:03;;;;;;;5.50;1.00;;;;;;;12.95;61.09;100569.72;5035958;27;100266;-76
2023/10/14 09:13:29;;;;;;;5.43;1.80;;;;;;;12.98;61.01;100565.88;5021336;28;97539;-76
2023/10/14 09:15:57;;;;;;;3.27;1.63;;;;;;;13.05;61.09;100572.84;5022221;27;97115;-75
2023/10/14 09:18:27;;;;;;;10.00;1.63;;;;;;;13.10;60.75;100576.81;5022717;28;97103;-77
2023/10/14 09:20:56;;;;;;;5.77;1.10;;;;;;;13.12;60.78;100572.19;5021549;27;97139;-76
2023/10/14 09:23:23;;;;;;;3.57;0.90;;;;;;;13.18;60.69;100580.41;5022454;27;97227;-76
2023/10/14 09:25:55;;;;;;;4.83;1.10;;;;;;;13.25;60.54;100586.09;5023587;28;96979;-77
2023/10/14 09:28:22;;;;;;;2.53;1.10;;;;;;;13.28;60.20;100595.34;5021786;28;97652;-76
2023/10/14 09:30:49;;;;;;;4.50;1.40;;;;;;;13.28;60.08;100593.31;5022500;27;97534;-76
2023/10/14 09:33:29;;;;;;;3.90;1.20;;;;;;;13.32;59.95;100590.97;5021437;27;97359;-77
2023/10/14 09:36:18;;;;;;;3.50;1.13;;;;;;;13.39;60.03;100597.91;5021439;28;96987;-76
2023/10/14 09:38:51;;;;;;;4.17;1.27;;;;;;;13.44;59.78;100600.56;5020377;28;97339;-74
2023/10/14 09:41:17;;;;;;;5.23;1.27;;;;;;;13.43;59.97;100609.44;5019986;28;97686;-78
2023/10/14 09:43:43;;;;;;;6.30;1.17;;;;;;;13.46;59.76;100616.69;5022869;28;97148;-75
2023/10/14 09:46:12;;;;;;;2.83;1.20;;;;;;;13.51;59.69;100619.38;5022180;27;97505;-76
2023/10/14 09:48:38;;;;;;;2.47;1.10;;;;;;;13.53;59.49;100621.63;5021184;27;97226;-75
2023/10/14 09:51:06;;;;;;;6.97;1.63;;;;;;;13.51;59.16;100618.63;5020357;27;96869;-77
2023/10/14 09:53:36;;;;;;;5.03;1.38;;;;;;;13.60;58.54;100627.25;5021431;28;100645;-77
2023/10/14 09:56:11;;;;;;;7.73;1.70;;;;;;;13.63;58.26;100633.78;5021513;27;97246;-75
2023/10/14 09:58:42;;;;;;;4.87;1.50;;;;;;;13.69;58.88;100629.59;5014072;27;100307;-75
2023/10/14 10:01:15;;;;;;;4.47;1.33;;;;;;;13.64;58.81;100627.69;5019978;28;98315;-75
2023/10/14 10:03:45;;;;;;;4.00;1.00;;;;;;;13.66;58.67;100646.59;5020577;27;97496;-76
2023/10/14 10:06:49;;;;;;;4.13;1.70;;;;;;;13.67;58.12;100637.72;5036327;27;97321;-76
2023/10/14 10:10:00;;;;;;;7.77;1.27;;;;;;;13.72;57.24;100644.44;5020859;28;97855;-76
2023/10/14 10:12:29;;;;;;;7.40;1.63;;;;;;;13.77;58.26;100646.38;5021922;28;98483;-75
2023/10/14 10:15:03;;;;;;;3.47;1.40;;;;;;;13.83;57.17;100643.44;5036474;27;97181;-76
2023/10/14 10:17:30;;;;;;;5.50;1.47;;;;;;;13.90;58.17;100657.44;5021652;27;97175;-75
2023/10/14 10:20:12;;;;;;;7.60;1.73;;;;;;;13.97;57.51;100665.13;5016545;28;97521;-75
2023/10/14 10:22:51;;;;;;;5.03;1.23;;;;;;;14.06;56.60;100661.91;5021357;27;97388;-76
2023/10/14 10:25:20;;;;;;;4.20;1.20;;;;;;;14.19;57.95;100664.63;5021658;28;97561;-76
2023/10/14 10:27:49;;;;;;;5.13;1.43;;;;;;;14.25;57.85;100670.09;5021992;28;98418;-75
2023/10/14 10:30:17;;;;;;;4.10;1.30;;;;;;;14.28;57.59;100655.06;5021726;28;97229;-77
2023/10/14 10:32:46;;;;;;;4.17;1.33;;;;;;;14.34;57.51;100664.78;5018504;27;100673;-76
2023/10/14 10:35:14;;;;;;;7.33;2.00;;;;;;;14.43;57.25;100658.75;5022076;27;96687;-77
2023/10/14 10:37:50;;;;;;;10.40;1.73;;;;;;;14.52;56.08;100671.44;5021184;27;97245;-76
2023/10/14 10:40:22;;;;;;;9.87;1.37;;;;;;;14.50;56.50;100667.72;5022031;28;97119;-78
2023/10/14 10:42:53;;;;;;;4.83;1.13;;;;;;;14.44;56.63;100679.72;5020069;28;97584;-76
2023/10/14 10:45:32;;;;;;;2.20;1.13;;;;;;;14.46;56.83;100663.22;5037591;27;96893;-77
2023/10/14 10:48:03;;;;;;;5.40;1.20;;;;;;;14.55;55.35;100673.16;5017643;28;97401;-75
2023/10/14 10:50:37;;;;;;;5.00;1.57;;;;;;;14.61;55.18;100670.25;5020518;28;97557;-77
2023/10/14 10:53:05;;;;;;;6.17;1.50;;;;;;;14.67;55.96;100690.34;5021690;28;97554;-77
2023/10/14 10:55:30;;;;;;;3.80;1.33;;;;;;;14.61;55.47;100689.72;5021322;28;97501;-76
2023/10/14 10:58:00;;;;;;;5.60;1.33;;;;;;;14.53;55.75;100702.81;5020218;28;105601;-75
2023/10/14 11:00:30;;;;;;;3.87;1.17;;;;;;;14.59;56.04;100698.59;5019218;28;97305;-76
2023/10/14 11:02:55;;;;;;;4.50;1.47;;;;;;;14.70;55.76;100717.06;5021213;28;97694;-77
2023/10/14 11:05:24;;;;;;;4.70;1.20;;;;;;;14.80;55.43;100704.19;5020816;28;97443;-75
2023/10/14 11:07:52;;;;;;;6.93;1.83;;;;;;;14.94;55.20;100697.22;5020789;28;97522;-76
2023/10/14 11:10:21;;;;;;;4.43;1.07;;;;;;;15.09;55.09;100698.09;5016770;28;97548;-75
2023/10/14 11:12:46;;;;;;;7.40;1.40;;;;;;;15.18;54.75;100696.84;5020021;27;97123;-75
2023/10/14 11:15:21;;;;;;;3.00;1.07;;;;;;;15.26;54.10;100700.47;5018125;28;97113;-76
2023/10/14 11:17:57;;;;;;;7.07;1.17;;;;;;;15.41;54.52;100686.63;5035762;27;97130;-75
2023/10/14 11:20:26;;;;;;;4.50;1.20;;;;;;;15.45;54.31;100686.25;5017652;28;97391;-76
2023/10/14 11:22:55;;;;;;;4.37;0.90;;;;;;;15.44;54.35;100682.72;5019801;28;98216;-78
2023/10/14 11:25:21;;;;;;;4.30;1.50;;;;;;;15.61;54.14;100696.91;5019855;28;98781;-74
2023/10/14 11:27:47;;;;;;;4.23;1.10;;;;;;;15.81;53.99;100698.88;5019210;27;97309;-76
2023/10/14 11:30:13;;;;;;;2.73;1.00;;;;;;;15.98;53.30;100706.78;5018717;27;100522;-77
2023/10/14 11:32:49;;;;;;;6.00;1.20;;;;;;;15.84;51.44;100708.19;5018762;28;97076;-76
2023/10/14 11:35:18;;;;;;;2.77;1.00;;;;;;;15.83;53.04;100704.63;5019006;28;96866;-74
2023/10/14 11:37:53;;;;;;;3.53;1.07;;;;;;;15.75;51.82;100694.75;5019628;28;97059;-75
2023/10/14 11:40:19;;;;;;;4.83;1.10;;;;;;;15.87;53.10;100699.47;5018960;28;98021;-77
2023/10/14 11:42:45;;;;;;;4.37;1.50;;;;;;;15.97;53.02;100696.16;5021504;28;97054;-78
2023/10/14 11:45:12;;;;;;;4.10;1.20;;;;;;;15.85;52.80;100702.06;5019045;28;97246;-75
2023/10/14 11:47:39;;;;;;;4.10;1.20;;;;;;;15.72;52.89;100712.59;5019696;28;97031;-77
2023/10/14 11:50:11;;;;;;;6.43;1.40;;;;;;;15.53;52.90;100703.75;5019314;28;97507;-77
2023/10/14 11:52:44;;;;;;;5.50;1.30;;;;;;;15.55;53.28;100701.91;5020628;28;97068;-76
2023/10/14 11:55:16;;;;;;;3.03;1.00;;;;;;;15.95;53.06;100696.72;5020913;27;97049;-74
2023/10/14 11:57:46;;;;;;;3.40;1.00;;;;;;;16.28;52.52;100701.28;5033821;27;98133;-76
2023/10/14 12:00:20;;;;;;;5.60;1.43;;;;;;;16.67;52.14;100700.78;5017765;28;99037;-77
2023/10/14 12:02:47;;;;;;;7.17;1.33;;;;;;;16.91;51.75;100707.13;5020536;28;96982;-76